createdAt,value
2022-12-03T00:02:57.440Z,9.13
2022-12-03T00:08:12.262Z,8.95
2022-12-03T00:13:27.469Z,15.07
2022-12-03T00:18:43.245Z,16.52
2022-12-03T00:23:58.238Z,13.40
2022-12-03T00:29:13.699Z,10.32
2022-12-03T00:34:28.970Z,10.05
2022-12-03T00:39:44.269Z,8.60
2022-12-03T00:44:59.207Z,8.07
2022-12-03T00:50:14.547Z,10.48
2022-12-03T00:55:30.207Z,8.70
2022-12-03T01:00:45.211Z,15.43
2022-12-03T01:06:01.271Z,9.63
2022-12-03T01:11:16.204Z,10.40
2022-12-03T01:16:31.659Z,9.25
2022-12-03T01:21:47.056Z,10.15
2022-12-03T01:27:02.011Z,10.63
2022-12-03T01:32:17.261Z,9.55
2022-12-03T01:37:32.246Z,9.48
2022-12-03T01:42:47.200Z,8.13
2022-12-03T01:48:02.556Z,9.70
2022-12-03T01:53:18.225Z,10.48
2022-12-03T01:58:33.295Z,9.07
2022-12-03T02:03:48.051Z,12.02
2022-12-03T02:09:03.565Z,9.38
2022-12-03T02:14:19.212Z,10.27
2022-12-03T02:19:34.254Z,11.30
2022-12-03T02:24:49.364Z,11.55
2022-12-03T02:30:04.253Z,9.10
2022-12-03T02:35:19.268Z,9.45
2022-12-03T02:40:34.580Z,9.35
2022-12-03T02:45:50.215Z,11.90
2022-12-03T02:51:05.284Z,14.30
2022-12-03T02:56:20.307Z,11.77
2022-12-03T03:01:35.366Z,10.65
2022-12-03T03:06:50.535Z,11.05
2022-12-03T03:12:06.539Z,10.63
2022-12-03T03:17:22.331Z,8.95
2022-12-03T03:22:37.260Z,10.02
2022-12-03T03:27:52.257Z,17.63
2022-12-03T03:33:07.222Z,9.73
2022-12-03T03:38:22.343Z,12.98
2022-12-03T03:43:37.232Z,10.10
2022-12-03T03:48:52.266Z,9.85
2022-12-03T03:54:07.578Z,10.90
2022-12-03T03:59:23.267Z,9.38
2022-12-03T04:04:38.286Z,10.00
2022-12-03T04:09:53.339Z,10.07
2022-12-03T04:15:08.593Z,9.48
2022-12-03T04:20:24.279Z,10.60
2022-12-03T04:25:39.258Z,12.30
2022-12-03T04:30:54.277Z,9.20
2022-12-03T04:36:09.586Z,10.40
2022-12-03T04:41:25.280Z,10.07
2022-12-03T04:46:40.569Z,11.15
2022-12-03T04:51:56.308Z,8.75
2022-12-03T04:57:11.241Z,8.68
2022-12-03T05:02:26.333Z,8.35
2022-12-03T05:07:41.325Z,9.63
2022-12-03T05:12:56.355Z,8.20
2022-12-03T05:18:11.080Z,8.20
2022-12-03T05:23:26.323Z,8.40
2022-12-03T05:28:41.295Z,8.95
2022-12-03T05:33:56.346Z,7.90
2022-12-03T05:39:11.497Z,8.82
2022-12-03T05:44:27.342Z,11.93
2022-12-03T05:49:42.308Z,11.05
2022-12-03T05:54:57.220Z,10.55
2022-12-03T06:00:12.597Z,11.07
2022-12-03T06:05:28.353Z,14.82
2022-12-03T06:10:43.336Z,14.25
2022-12-03T06:15:58.572Z,10.73
2022-12-03T06:21:14.276Z,12.15
2022-12-03T06:26:29.576Z,22.80
2022-12-03T06:31:46.490Z,21.50
2022-12-03T06:37:02.234Z,17.23
2022-12-03T06:42:17.240Z,15.20
2022-12-03T06:47:32.271Z,12.07
2022-12-03T06:52:47.277Z,11.15
2022-12-03T06:58:02.328Z,13.30
2022-12-03T07:03:17.340Z,11.98
2022-12-03T07:08:32.603Z,12.55
2022-12-03T07:13:48.337Z,14.85
2022-12-03T07:19:03.424Z,10.98
2022-12-03T07:24:18.315Z,10.50
2022-12-03T07:29:33.666Z,12.57
2022-12-03T07:34:49.309Z,12.63
2022-12-03T07:40:05.303Z,14.90
2022-12-03T07:45:20.267Z,14.52
2022-12-03T07:50:35.559Z,12.15
2022-12-03T07:55:51.622Z,13.65
2022-12-03T08:01:07.449Z,13.68
2022-12-03T08:06:22.291Z,17.35
2022-12-03T08:11:37.082Z,16.05
2022-12-03T08:16:53.302Z,14.57
2022-12-03T08:22:08.317Z,13.43
2022-12-03T08:27:23.624Z,14.27
2022-12-03T08:32:39.334Z,11.48
2022-12-03T08:37:55.564Z,11.88
2022-12-03T08:43:11.243Z,14.00
2022-12-03T08:48:26.250Z,18.23
2022-12-03T08:53:41.251Z,14.02
2022-12-03T08:58:56.298Z,14.70
2022-12-03T09:04:11.706Z,12.30
2022-12-03T09:09:27.249Z,16.00
2022-12-03T09:14:42.298Z,13.23
2022-12-03T09:19:58.280Z,13.23
2022-12-03T09:25:13.024Z,14.90
2022-12-03T09:30:28.279Z,15.48
2022-12-03T09:35:43.240Z,15.73
2022-12-03T09:40:58.253Z,19.50
2022-12-03T09:46:13.644Z,17.10
2022-12-03T09:51:29.579Z,16.33
2022-12-03T09:56:45.252Z,14.98
2022-12-03T10:02:00.729Z,13.70
2022-12-03T10:07:16.269Z,16.10
2022-12-03T10:12:31.289Z,13.30
2022-12-03T10:17:46.066Z,15.85
2022-12-03T10:23:01.621Z,14.35
2022-12-03T10:28:17.299Z,15.50
2022-12-03T10:33:32.263Z,15.45
2022-12-03T10:38:47.298Z,17.05
2022-12-03T10:44:02.226Z,19.88
2022-12-03T10:49:17.054Z,171.60
2022-12-03T10:54:32.346Z,142.65
2022-12-03T10:59:47.599Z,144.48
2022-12-03T11:05:04.255Z,120.95
2022-12-03T11:10:19.266Z,106.80
2022-12-03T11:15:34.360Z,98.07
2022-12-03T11:20:49.073Z,84.70
2022-12-03T11:26:04.268Z,82.25
2022-12-03T11:31:19.587Z,75.32
2022-12-03T11:37:00.441Z,63.60
2022-12-03T11:42:10.252Z,54.33
2022-12-03T11:47:25.331Z,49.83
2022-12-03T11:52:40.312Z,44.47
2022-12-03T11:57:55.261Z,39.92
2022-12-03T12:03:11.644Z,37.70
2022-12-03T12:08:27.404Z,38.38
2022-12-03T12:13:42.318Z,30.45
2022-12-03T12:18:57.580Z,33.85
2022-12-03T12:24:13.269Z,26.88
2022-12-03T12:29:28.318Z,27.20
2022-12-03T12:34:43.304Z,28.98
2022-12-03T12:39:58.735Z,29.63
2022-12-03T12:45:14.601Z,25.70
2022-12-03T12:50:30.404Z,25.83
2022-12-03T12:55:45.272Z,22.02
2022-12-03T13:01:00.728Z,26.40
2022-12-03T13:06:18.253Z,21.13
2022-12-03T13:11:33.260Z,24.23
2022-12-03T13:16:48.674Z,30.20
2022-12-03T13:22:04.367Z,27.23
2022-12-03T13:27:19.571Z,24.75
2022-12-03T13:32:35.288Z,24.95
2022-12-03T13:38:27.363Z,30.30
2022-12-03T13:43:44.502Z,29.92
2022-12-03T13:49:02.098Z,26.50
2022-12-03T13:54:18.379Z,24.63
2022-12-03T13:59:33.253Z,24.30
2022-12-03T14:04:48.512Z,22.35
2022-12-03T14:10:04.270Z,26.65
2022-12-03T14:15:20.618Z,24.10
2022-12-03T14:20:36.352Z,26.30
2022-12-03T14:25:51.281Z,26.27
2022-12-03T14:31:06.247Z,25.60
2022-12-03T14:36:21.252Z,21.65
2022-12-03T14:41:36.281Z,30.80
2022-12-03T14:46:56.609Z,20.02
2022-12-03T14:52:13.011Z,23.13
2022-12-03T14:57:28.290Z,24.00
2022-12-03T15:02:43.711Z,21.60
2022-12-03T15:07:59.404Z,23.50
2022-12-03T15:13:14.283Z,22.13
2022-12-03T15:18:29.284Z,20.92
2022-12-03T15:23:44.297Z,18.60
2022-12-03T15:28:59.280Z,18.13
2022-12-03T15:34:20.443Z,21.15
2022-12-03T15:39:37.275Z,20.55
2022-12-03T15:44:52.344Z,21.35
2022-12-03T15:50:07.253Z,22.85
2022-12-03T15:55:22.555Z,20.08
2022-12-03T16:00:38.309Z,22.63
2022-12-03T16:05:53.073Z,23.15
2022-12-03T16:11:08.649Z,19.63
2022-12-03T16:16:24.691Z,23.10
2022-12-03T16:21:41.299Z,21.00
2022-12-03T16:26:56.584Z,23.65
2022-12-03T16:32:12.281Z,22.42
2022-12-03T16:37:27.403Z,24.40
2022-12-03T16:42:42.330Z,23.80
2022-12-03T16:47:57.276Z,23.65
2022-12-03T16:53:12.371Z,22.70
2022-12-03T16:58:27.326Z,27.15
2022-12-03T17:03:42.318Z,23.95
2022-12-03T17:08:57.097Z,25.60
2022-12-03T17:14:12.312Z,25.73
2022-12-03T17:19:28.602Z,26.45
2022-12-03T17:24:44.323Z,24.33
2022-12-03T17:29:59.676Z,26.27
2022-12-03T17:35:15.296Z,25.08
2022-12-03T17:40:30.576Z,24.17
2022-12-03T17:45:46.353Z,21.63
2022-12-03T17:51:01.311Z,26.30
2022-12-03T17:56:16.317Z,26.48
2022-12-03T18:01:31.646Z,31.15
2022-12-03T18:06:47.300Z,28.02
2022-12-03T18:12:02.568Z,30.73
2022-12-03T18:17:18.681Z,30.98
2022-12-03T18:22:34.334Z,32.88
2022-12-03T18:27:49.353Z,29.92
2022-12-03T18:33:05.626Z,30.92
2022-12-03T18:38:21.286Z,27.52
2022-12-03T18:43:36.409Z,25.10
2022-12-03T18:48:51.334Z,27.63
2022-12-03T18:54:08.438Z,26.38
2022-12-03T18:59:23.301Z,22.92
2022-12-03T19:04:38.582Z,26.80
2022-12-03T19:09:54.976Z,22.45
2022-12-03T19:15:10.358Z,23.92
2022-12-03T19:20:25.059Z,23.45
2022-12-03T19:25:40.297Z,20.02
2022-12-03T19:30:55.302Z,21.33
2022-12-03T19:36:10.094Z,21.88
2022-12-03T19:41:25.390Z,19.38
2022-12-03T19:46:40.382Z,20.20
2022-12-03T19:51:55.334Z,22.13
2022-12-03T19:57:10.316Z,19.52
2022-12-03T20:02:25.374Z,19.85
2022-12-03T20:07:40.587Z,22.08
2022-12-03T20:12:56.347Z,20.88
2022-12-03T20:18:11.343Z,20.15
2022-12-03T20:23:26.303Z,20.80
2022-12-03T20:28:41.116Z,19.55
2022-12-03T20:33:56.049Z,21.20
2022-12-03T20:39:11.117Z,20.23
2022-12-03T20:44:26.351Z,21.92
2022-12-03T20:49:41.652Z,21.90
2022-12-03T20:54:57.284Z,24.08
2022-12-03T21:00:12.287Z,21.73
2022-12-03T21:05:27.332Z,19.23
2022-12-03T21:10:42.347Z,17.70
2022-12-03T21:15:57.074Z,23.63
2022-12-03T21:21:12.786Z,18.38
2022-12-03T21:26:28.330Z,25.23
2022-12-03T21:31:43.302Z,24.95
2022-12-03T21:36:58.444Z,18.23
2022-12-03T21:42:18.764Z,18.75
2022-12-03T21:47:49.439Z,19.13
2022-12-03T21:53:04.433Z,32.63
2022-12-03T21:58:19.207Z,28.70
2022-12-03T22:03:34.434Z,22.38
2022-12-03T22:08:49.388Z,17.25
2022-12-03T22:14:04.337Z,20.83
2022-12-03T22:19:19.323Z,19.25
2022-12-03T22:24:34.345Z,17.00
2022-12-03T22:29:49.091Z,18.40
2022-12-03T22:35:04.698Z,18.52
2022-12-03T22:40:20.363Z,14.48
2022-12-03T22:45:35.660Z,15.20
2022-12-03T22:50:51.394Z,28.15
2022-12-03T22:56:07.358Z,20.85
2022-12-03T23:01:22.297Z,21.30
2022-12-03T23:06:37.408Z,19.80
2022-12-03T23:11:52.370Z,17.08
2022-12-03T23:17:07.332Z,24.70
2022-12-03T23:22:22.308Z,18.23
2022-12-03T23:27:37.300Z,20.25
2022-12-03T23:32:52.317Z,18.27
2022-12-03T23:38:07.701Z,19.38
2022-12-03T23:43:23.281Z,24.33
2022-12-03T23:48:38.645Z,20.17
2022-12-03T23:53:54.368Z,18.48
2022-12-03T23:59:09.724Z,18.73
